Time;durP1;ratioP1;P1;durP2;ratioP2;P2;SDS_P1;SDS_P2;PMS_P1;PMS_P2;Temp;Humidity;BMP_temperature;BMP_pressure;BME280_temperature;BME280_humidity;BME280_pressure;Samples;Min_cycle;Max_cycle;Signal;HPM_P1;HPM_P2
2023/03/14 09:12:51;;;;;;;1.23;0.60;;;7.50;99.90;;;;;;3213494;23;20238;-70
2023/03/14 09:15:18;;;;;;;2.93;1.30;;;7.50;99.90;;;;;;4918131;29;20265;-70
2023/03/14 09:17:45;;;;;;;2.20;1.00;;;7.50;99.90;;;;;;4918774;29;20209;-70
2023/03/14 09:20:14;;;;;;;2.80;1.40;;;7.50;99.90;;;;;;4918602;29;20245;-71
2023/03/14 09:22:40;;;;;;;1.90;1.30;;;7.50;99.90;;;;;;4918451;29;20241;-70
2023/03/14 09:25:08;;;;;;;2.37;1.10;;;7.40;99.90;;;;;;4918427;29;20209;-71
2023/03/14 09:27:35;;;;;;;3.70;1.40;;;7.40;99.90;;;;;;4918334;29;20237;-70
2023/03/14 09:30:03;;;;;;;2.37;1.13;;;7.40;99.90;;;;;;4918477;29;20233;-71
2023/03/14 09:32:31;;;;;;;2.20;1.00;;;7.40;99.90;;;;;;4918649;29;20209;-70
2023/03/14 09:34:58;;;;;;;6.93;1.30;;;7.30;99.90;;;;;;4918265;29;20249;-70
2023/03/14 09:37:24;;;;;;;4.20;1.20;;;7.20;99.90;;;;;;4918128;29;20210;-71
2023/03/14 09:39:51;;;;;;;5.67;1.00;;;7.30;99.90;;;;;;4918419;29;20249;-70
2023/03/14 09:42:22;;;;;;;2.03;0.90;;;7.30;99.90;;;;;;4918345;29;20209;-70
2023/03/14 09:44:56;;;;;;;4.53;1.43;;;7.40;99.90;;;;;;4918104;29;20213;-71
2023/03/14 09:47:25;;;;;;;4.27;1.20;;;7.30;99.90;;;;;;4912700;29;20209;-71
2023/03/14 09:49:52;;;;;;;3.90;1.03;;;7.30;99.90;;;;;;4917519;29;20596;-73
2023/03/14 09:52:24;;;;;;;5.37;1.20;;;7.40;99.90;;;;;;4917750;29;20209;-71
2023/03/14 09:54:53;;;;;;;2.80;1.20;;;7.40;99.90;;;;;;4917567;29;20216;-74
2023/03/14 09:57:24;;;;;;;5.53;1.50;;;7.40;99.90;;;;;;4917641;29;20209;-70
2023/03/14 09:59:54;;;;;;;5.23;1.00;;;7.50;99.90;;;;;;4917369;29;20245;-72
2023/03/14 10:02:22;;;;;;;4.27;1.00;;;7.60;99.90;;;;;;4912091;29;20581;-71
2023/03/14 10:04:53;;;;;;;3.13;1.07;;;7.60;99.90;;;;;;4915408;29;20676;-72
2023/03/14 10:07:25;;;;;;;3.27;1.17;;;7.50;99.90;;;;;;4904512;29;20569;-70
2023/03/14 10:09:52;;;;;;;4.03;1.10;;;7.50;99.90;;;;;;4915449;29;20240;-70
2023/03/14 10:12:20;;;;;;;5.27;0.90;;;7.70;99.90;;;;;;4917113;29;20209;-71
2023/03/14 10:14:49;;;;;;;3.30;1.10;;;7.80;99.90;;;;;;4917187;29;20703;-72
2023/03/14 10:17:19;;;;;;;2.40;1.13;;;7.80;99.90;;;;;;4917102;29;20209;-73
2023/03/14 10:19:56;;;;;;;3.63;0.90;;;8.10;99.90;;;;;;4917350;29;20244;-73
2023/03/14 10:22:26;;;;;;;1.87;1.00;;;8.30;99.90;;;;;;4917463;29;20248;-72
2023/03/14 10:24:56;;;;;;;1.60;0.80;;;8.40;99.90;;;;;;4917210;29;20744;-73
2023/03/14 10:27:29;;;;;;;5.47;0.90;;;8.40;99.90;;;;;;4917116;29;20300;-74
2023/03/14 10:29:58;;;;;;;2.10;1.00;;;8.30;99.90;;;;;;4917244;29;20231;-75
2023/03/14 10:32:33;;;;;;;6.43;0.87;;;8.20;99.90;;;;;;4916949;29;20593;-73
2023/03/14 10:35:21;;;;;;;3.33;0.80;;;8.10;99.90;;;;;;4916882;29;20620;-72
2023/03/14 10:37:54;;;;;;;2.60;1.03;;;8.10;99.90;;;;;;4913170;29;20213;-79
2023/03/14 10:40:26;;;;;;;2.53;0.67;;;7.90;99.90;;;;;;4898556;29;20324;-74
2023/03/14 10:42:55;;;;;;;2.20;0.80;;;7.80;99.90;;;;;;4898132;29;20240;-73
2023/03/14 10:45:33;;;;;;;4.07;0.60;;;7.70;99.90;;;;;;4903138;29;20273;-71
2023/03/14 10:48:07;;;;;;;2.50;0.70;;;7.70;99.90;;;;;;4915034;29;20235;-71
2023/03/14 10:50:36;;;;;;;5.23;0.70;;;7.60;99.90;;;;;;4915456;29;20241;-73
2023/03/14 10:53:06;;;;;;;0.93;0.33;;;7.70;99.90;;;;;;4915484;29;20213;-73
2023/03/14 10:55:42;;;;;;;1.13;0.50;;;7.50;99.90;;;;;;4915802;29;20222;-72
2023/03/14 10:58:24;;;;;;;1.90;0.60;;;7.30;99.90;;;;;;4915489;29;20312;-73
2023/03/14 11:00:58;;;;;;;1.63;0.57;;;7.30;99.90;;;;;;4915131;29;20237;-71
2023/03/14 11:03:28;;;;;;;0.90;0.60;;;7.30;99.90;;;;;;4915513;29;20272;-71
2023/03/14 11:05:58;;;;;;;1.87;0.43;;;7.30;99.90;;;;;;4897391;29;20581;-70
2023/03/14 11:08:32;;;;;;;0.57;0.40;;;7.20;99.90;;;;;;4912313;29;20210;-71
2023/03/14 11:11:11;;;;;;;1.30;0.63;;;7.10;99.90;;;;;;4915406;29;20244;-71
2023/03/14 11:13:44;;;;;;;3.00;0.87;;;7.10;99.90;;;;;;4914249;29;20584;-71
2023/03/14 11:16:20;;;;;;;3.47;0.90;;;7.10;99.90;;;;;;4915583;29;20213;-71
2023/03/14 11:19:09;;;;;;;1.17;0.40;;;7.00;99.90;;;;;;4896526;29;20210;-79
2023/03/14 11:21:46;;;;;;;2.67;0.60;;;7.10;99.90;;;;;;4895188;29;20218;-72
2023/03/14 11:24:42;;;;;;;1.03;0.43;;;7.00;99.90;;;;;;4896439;29;20202;-71
2023/03/14 11:27:21;;;;;;;0.77;0.47;;;7.00;99.90;;;;;;4902316;29;20233;-70
2023/03/14 11:29:56;;;;;;;1.00;0.70;;;7.00;99.90;;;;;;4914567;29;20233;-71
2023/03/14 11:32:36;;;;;;;2.80;0.43;;;7.00;99.90;;;;;;4915276;29;20248;-71
2023/03/14 11:35:08;;;;;;;3.03;0.50;;;7.00;99.90;;;;;;4904179;29;20297;-72
2023/03/14 11:37:40;;;;;;;1.63;0.57;;;6.90;99.90;;;;;;4905519;29;20209;-72
2023/03/14 11:40:14;;;;;;;3.07;0.30;;;6.70;99.90;;;;;;4913682;29;20241;-73
2023/03/14 11:42:44;;;;;;;0.60;0.30;;;6.70;99.90;;;;;;4907442;29;20216;-71
2023/03/14 11:45:19;;;;;;;0.57;0.27;;;6.60;99.90;;;;;;4914508;29;20673;-72
2023/03/14 11:47:48;;;;;;;0.73;0.33;;;6.70;99.90;;;;;;4915622;29;20291;-71
2023/03/14 11:50:18;;;;;;;2.10;0.20;;;6.70;99.90;;;;;;4917916;29;20243;-72
2023/03/14 11:52:51;;;;;;;0.40;0.17;;;6.90;99.90;;;;;;4918357;29;20673;-75
2023/03/14 11:55:22;;;;;;;1.10;0.40;;;6.90;99.90;;;;;;4905453;29;20674;-72
2023/03/14 11:57:51;;;;;;;0.20;0.13;;;6.80;99.90;;;;;;4910639;29;20209;-78
2023/03/14 12:00:20;;;;;;;1.23;0.47;;;6.80;99.90;;;;;;4912198;29;20241;-84
2023/03/14 12:02:57;;;;;;;0.90;0.37;;;6.90;99.90;;;;;;4919154;29;20676;-78
2023/03/14 12:05:39;;;;;;;0.60;0.40;;;7.00;99.90;;;;;;4919513;29;20260;-76
2023/03/14 12:08:44;;;;;;;1.23;0.40;;;7.10;99.90;;;;;;4919393;29;20213;-79
2023/03/14 12:11:21;;;;;;;1.87;0.53;;;7.30;99.90;;;;;;4919868;29;20230;-75
2023/03/14 12:13:51;;;;;;;1.10;0.63;;;7.20;99.90;;;;;;4919083;29;20228;-74
2023/03/14 12:16:34;;;;;;;0.40;0.30;;;7.40;99.90;;;;;;4919491;29;20210;-78
2023/03/14 12:19:31;;;;;;;0.70;0.30;;;7.10;99.90;;;;;;4919515;29;20665;-77
2023/03/14 12:22:22;;;;;;;0.30;0.20;;;7.30;99.90;;;;;;4919845;29;20206;-76
2023/03/14 12:24:55;;;;;;;1.47;0.47;;;7.20;99.90;;;;;;4919733;29;20657;-77
2023/03/14 12:28:09;;;;;;;0.93;0.40;;;7.20;99.90;;;;;;4919604;29;20210;-73
2023/03/14 12:30:38;;;;;;;1.60;0.60;;;6.90;99.90;;;;;;4860800;29;20232;-76
2023/03/14 12:33:33;;;;;;;1.97;0.40;;;6.70;99.90;;;;;;4913556;29;20213;-76
2023/03/14 12:36:12;;;;;;;1.40;0.60;;;6.80;99.90;;;;;;4919309;29;20217;-73
2023/03/14 12:38:50;;;;;;;3.20;0.70;;;6.90;99.90;;;;;;4919436;29;20209;-77
2023/03/14 12:41:21;;;;;;;0.67;0.40;;;6.90;99.90;;;;;;4919393;29;20343;-73
2023/03/14 12:43:48;;;;;;;1.50;0.50;;;7.00;99.90;;;;;;4919205;29;20218;-76
2023/03/14 12:46:24;;;;;;;3.37;0.70;;;6.80;99.90;;;;;;4919006;29;20672;-75
2023/03/14 12:48:54;;;;;;;3.90;0.70;;;6.80;99.90;;;;;;4919216;29;20213;-73
2023/03/14 12:51:29;;;;;;;0.90;0.50;;;6.80;99.90;;;;;;4918929;29;20238;-73
2023/03/14 12:54:12;;;;;;;0.80;0.80;;;6.90;99.90;;;;;;4919190;29;20213;-76
2023/03/14 12:56:58;;;;;;;0.90;0.43;;;6.80;99.90;;;;;;4918862;29;20220;-77
2023/03/14 12:59:35;;;;;;;13.60;0.80;;;6.80;99.90;;;;;;4918725;29;20233;-76
2023/03/14 13:02:14;;;;;;;5.87;0.60;;;6.90;99.90;;;;;;4918209;29;20583;-76
2023/03/14 13:04:46;;;;;;;2.33;0.60;;;6.80;99.90;;;;;;4913509;29;20612;-72
2023/03/14 13:07:14;;;;;;;4.10;0.60;;;6.80;99.90;;;;;;4918860;29;20210;-76
2023/03/14 13:10:02;;;;;;;9.50;0.97;;;6.80;99.90;;;;;;4918511;29;20225;-72
2023/03/14 13:12:39;;;;;;;0.73;0.57;;;6.90;99.90;;;;;;4918451;29;20702;-73
2023/03/14 13:15:19;;;;;;;1.83;0.50;;;6.90;99.90;;;;;;4918657;29;20209;-72
2023/03/14 13:17:48;;;;;;;1.47;0.50;;;7.00;99.90;;;;;;4918672;29;20226;-74
2023/03/14 13:20:21;;;;;;;2.03;0.60;;;7.00;99.90;;;;;;4918660;29;20301;-73
2023/03/14 13:22:50;;;;;;;2.40;0.57;;;7.20;99.90;;;;;;4905048;29;20281;-74
2023/03/14 13:25:18;;;;;;;0.70;0.50;;;7.20;99.90;;;;;;4918214;29;20711;-72
2023/03/14 13:27:46;;;;;;;0.70;0.50;;;7.20;99.90;;;;;;4918580;29;20300;-75
2023/03/14 13:30:19;;;;;;;1.40;0.83;;;7.20;99.90;;;;;;4918097;29;20276;-72
2023/03/14 13:32:48;;;;;;;1.10;0.80;;;7.10;99.90;;;;;;4914815;29;20206;-72
2023/03/14 13:35:18;;;;;;;1.40;0.70;;;7.10;99.90;;;;;;4899082;29;20218;-72
2023/03/14 13:37:44;;;;;;;1.27;0.70;;;7.10;99.90;;;;;;4899143;29;20210;-73
2023/03/14 13:40:21;;;;;;;6.23;0.70;;;7.10;99.90;;;;;;4899061;29;20757;-73
2023/03/14 13:42:50;;;;;;;4.17;0.70;;;7.00;99.90;;;;;;4901803;29;20215;-74
2023/03/14 13:45:17;;;;;;;1.97;0.40;;;7.00;99.90;;;;;;4917407;29;20205;-72
2023/03/14 13:47:47;;;;;;;1.80;0.47;;;7.10;99.90;;;;;;4917145;29;20665;-75
2023/03/14 13:50:17;;;;;;;6.00;0.70;;;7.20;99.90;;;;;;4917823;29;20700;-73
2023/03/14 13:52:45;;;;;;;2.37;0.87;;;7.30;99.90;;;;;;4917601;29;20209;-72
2023/03/14 13:55:17;;;;;;;6.60;1.00;;;7.40;99.90;;;;;;4917824;29;20300;-72
2023/03/14 13:57:47;;;;;;;6.13;0.90;;;7.40;99.90;;;;;;4917568;29;20214;-73
2023/03/14 14:00:26;;;;;;;6.80;1.57;;;7.40;99.90;;;;;;4917593;29;20241;-75
2023/03/14 14:02:54;;;;;;;6.27;0.90;;;7.60;99.90;;;;;;4917252;29;20665;-74
2023/03/14 14:05:22;;;;;;;6.57;0.87;;;7.70;99.90;;;;;;4917526;29;20253;-75
2023/03/14 14:07:51;;;;;;;3.03;0.50;;;7.70;99.90;;;;;;4917607;29;20681;-72
2023/03/14 14:10:19;;;;;;;4.90;0.80;;;7.70;99.90;;;;;;4917383;29;20273;-76
2023/03/14 14:12:51;;;;;;;7.10;1.20;;;7.70;99.90;;;;;;4916659;29;20224;-75
2023/03/14 14:15:23;;;;;;;5.93;1.83;;;7.90;99.90;;;;;;4917434;29;20225;-74
2023/03/14 14:17:53;;;;;;;8.90;0.90;;;7.90;99.90;;;;;;4917708;29;20205;-75
2023/03/14 14:20:31;;;;;;;5.37;0.90;;;7.90;99.90;;;;;;4917253;29;20237;-73
2023/03/14 14:22:59;;;;;;;4.97;0.77;;;7.90;99.90;;;;;;4917369;29;20692;-74
2023/03/14 14:25:26;;;;;;;3.23;0.73;;;7.70;99.90;;;;;;4917098;29;20254;-75
2023/03/14 14:27:53;;;;;;;6.53;1.20;;;7.70;99.90;;;;;;4917500;29;20214;-75
2023/03/14 14:30:31;;;;;;;3.63;0.70;;;7.70;99.90;;;;;;4917290;29;20237;-76
2023/03/14 14:33:14;;;;;;;4.53;0.70;;;8.00;99.90;;;;;;4917383;29;20209;-75
2023/03/14 14:35:41;;;;;;;6.23;0.93;;;8.40;99.90;;;;;;4917392;29;20268;-75
2023/03/14 14:38:16;;;;;;;5.03;0.90;;;8.60;99.90;;;;;;4917370;29;20213;-76
2023/03/14 14:40:48;;;;;;;3.43;0.80;;;8.90;99.90;;;;;;4916955;29;20233;-74
2023/03/14 14:43:19;;;;;;;2.00;0.60;;;8.90;99.90;;;;;;4917109;29;20206;-72
2023/03/14 14:45:49;;;;;;;9.23;1.23;;;8.90;99.90;;;;;;4916370;29;20663;-72
2023/03/14 14:48:19;;;;;;;7.07;0.70;;;8.60;99.90;;;;;;4916795;29;20554;-72
2023/03/14 14:51:01;;;;;;;4.77;0.57;;;8.10;99.90;;;;;;4916881;29;20237;-73
2023/03/14 14:53:30;;;;;;;6.70;0.77;;;7.90;99.90;;;;;;4916985;29;20213;-73
2023/03/14 14:55:59;;;;;;;2.57;0.30;;;7.70;99.90;;;;;;4916982;29;20217;-74
2023/03/14 14:58:28;;;;;;;2.27;0.47;;;7.40;99.90;;;;;;4916621;29;20265;-73
2023/03/14 15:00:59;;;;;;;2.63;0.13;;;7.10;99.90;;;;;;4916671;29;20245;-73
2023/03/14 15:03:29;;;;;;;0.50;0.23;;;6.70;99.90;;;;;;4916988;29;20572;-73
2023/03/14 15:05:56;;;;;;;0.30;0.10;;;6.40;99.90;;;;;;4916768;29;20665;-73
2023/03/14 15:08:25;;;;;;;1.90;0.10;;;6.20;99.90;;;;;;4916824;29;20205;-74
2023/03/14 15:10:52;;;;;;;0.67;0.20;;;6.10;99.90;;;;;;4916801;29;20746;-73
2023/03/14 15:13:19;;;;;;;1.13;0.40;;;6.00;99.90;;;;;;4916511;29;20221;-73
2023/03/14 15:15:46;;;;;;;0.30;0.10;;;6.00;99.90;;;;;;4916407;29;20661;-74
2023/03/14 15:18:16;;;;;;;1.23;0.40;;;6.10;99.90;;;;;;4916520;29;20619;-74
2023/03/14 15:20:43;;;;;;;0.33;0.17;;;6.30;99.90;;;;;;4916330;29;20240;-72
2023/03/14 15:23:17;;;;;;;0.40;0.17;;;6.40;99.90;;;;;;4916390;29;20576;-71
2023/03/14 15:25:45;;;;;;;1.07;0.30;;;6.60;99.90;;;;;;4920859;29;20206;-72
2023/03/14 15:28:16;;;;;;;2.60;0.30;;;6.90;99.90;;;;;;4920589;29;20236;-71
2023/03/14 15:30:44;;;;;;;4.37;1.20;;;7.10;99.90;;;;;;4919936;29;20233;-74
2023/03/14 15:33:10;;;;;;;1.20;0.43;;;7.30;99.90;;;;;;4920484;29;20216;-72
2023/03/14 15:35:43;;;;;;;0.83;0.30;;;7.50;99.90;;;;;;4920588;29;20241;-73
2023/03/14 15:38:13;;;;;;;1.50;0.40;;;7.50;99.90;;;;;;4920677;29;20214;-71
2023/03/14 15:40:41;;;;;;;1.40;0.27;;;7.70;99.90;;;;;;4913628;29;20419;-72
2023/03/14 15:43:08;;;;;;;1.63;0.20;;;7.80;99.90;;;;;;4899809;29;20335;-72
2023/03/14 15:45:35;;;;;;;1.27;0.40;;;7.80;99.90;;;;;;4901416;29;20217;-71
2023/03/14 15:48:02;;;;;;;1.57;0.20;;;7.80;99.90;;;;;;4901150;29;20214;-71
2023/03/14 15:50:28;;;;;;;2.53;0.40;;;8.10;99.90;;;;;;4900941;29;20257;-76
2023/03/14 15:52:57;;;;;;;2.20;0.50;;;8.20;99.90;;;;;;4901431;29;20210;-73
2023/03/14 15:55:24;;;;;;;0.63;0.30;;;8.20;99.90;;;;;;4900961;29;20206;-72
2023/03/14 15:57:50;;;;;;;1.93;0.53;;;8.20;99.90;;;;;;4900859;29;20238;-72
2023/03/14 16:00:21;;;;;;;0.50;0.30;;;8.00;99.90;;;;;;4900705;29;20235;-72
2023/03/14 16:02:48;;;;;;;1.33;0.30;;;8.00;99.90;;;;;;4901203;29;20238;-72
2023/03/14 16:05:15;;;;;;;2.77;0.40;;;8.00;99.90;;;;;;4901034;29;20297;-72
2023/03/14 16:07:42;;;;;;;2.07;0.33;;;8.00;99.90;;;;;;4900728;29;20217;-72
2023/03/14 16:10:13;;;;;;;0.57;0.20;;;8.10;99.90;;;;;;4900867;29;20241;-72
2023/03/14 16:12:40;;;;;;;3.00;0.33;;;8.00;99.90;;;;;;4903567;29;20218;-72
2023/03/14 16:15:08;;;;;;;1.50;0.60;;;7.90;99.90;;;;;;4917727;29;20692;-71
2023/03/14 16:17:37;;;;;;;0.70;0.20;;;7.90;99.90;;;;;;4919266;29;20216;-72
2023/03/14 16:20:04;;;;;;;2.83;0.43;;;7.80;99.90;;;;;;4919707;29;20285;-72
2023/03/14 16:22:34;;;;;;;1.03;0.20;;;7.70;99.90;;;;;;4919336;29;20233;-71
2023/03/14 16:25:01;;;;;;;1.97;0.33;;;7.80;99.90;;;;;;4919609;29;20216;-72
2023/03/14 16:27:30;;;;;;;0.50;0.30;;;7.70;99.90;;;;;;4919388;29;20684;-71
2023/03/14 16:29:57;;;;;;;2.53;0.60;;;7.70;99.90;;;;;;4919216;29;20689;-72
2023/03/14 16:32:24;;;;;;;3.60;0.90;;;7.70;99.90;;;;;;4919137;29;20683;-73
2023/03/14 16:34:51;;;;;;;0.90;0.43;;;7.50;99.90;;;;;;4919159;29;20216;-72
2023/03/14 16:37:20;;;;;;;5.93;0.70;;;7.30;99.90;;;;;;4918730;29;20265;-72
2023/03/14 16:39:47;;;;;;;5.93;0.50;;;7.40;99.90;;;;;;4919187;29;20229;-71
2023/03/14 16:42:14;;;;;;;2.00;0.57;;;7.60;99.90;;;;;;4919025;29;20233;-71
2023/03/14 16:44:42;;;;;;;2.13;0.70;;;7.60;99.90;;;;;;4918932;29;20218;-72
2023/03/14 16:47:10;;;;;;;3.73;1.30;;;7.50;99.90;;;;;;4919077;29;20210;-72
2023/03/14 16:49:37;;;;;;;3.33;0.80;;;7.50;99.90;;;;;;4919058;29;20241;-72
2023/03/14 16:52:04;;;;;;;4.53;0.60;;;7.50;99.90;;;;;;4919182;29;20209;-72
2023/03/14 16:54:32;;;;;;;6.67;0.90;;;7.50;99.90;;;;;;4918806;29;20209;-71
2023/03/14 16:56:58;;;;;;;9.13;1.27;;;7.60;99.90;;;;;;4918734;29;20210;-71
2023/03/14 16:59:27;;;;;;;5.87;1.30;;;7.60;99.90;;;;;;4918812;29;20240;-72
2023/03/14 17:01:55;;;;;;;3.53;1.10;;;7.50;99.90;;;;;;4918651;29;20237;-72
2023/03/14 17:04:23;;;;;;;4.50;1.10;;;7.70;99.90;;;;;;4918731;29;20569;-75
2023/03/14 17:06:51;;;;;;;4.03;0.80;;;7.60;99.90;;;;;;4918865;29;20214;-74
2023/03/14 17:09:18;;;;;;;4.03;0.70;;;7.70;99.90;;;;;;4918860;29;20724;-71
2023/03/14 17:11:45;;;;;;;2.57;0.50;;;7.60;99.90;;;;;;4918417;29;20665;-71
2023/03/14 17:14:11;;;;;;;2.73;0.50;;;7.50;99.90;;;;;;4918488;29;20303;-71
2023/03/14 17:16:38;;;;;;;4.97;0.87;;;7.40;99.90;;;;;;4918699;29;20220;-71
2023/03/14 17:19:06;;;;;;;5.17;1.03;;;7.30;99.90;;;;;;4918423;29;20205;-71
2023/03/14 17:21:33;;;;;;;5.20;0.60;;;7.30;99.90;;;;;;4918452;29;20234;-72
2023/03/14 17:24:00;;;;;;;6.23;0.87;;;7.30;99.90;;;;;;4918310;29;20216;-72
2023/03/14 17:26:28;;;;;;;8.57;0.80;;;7.20;99.90;;;;;;4918704;29;20213;-71
2023/03/14 17:28:54;;;;;;;2.43;0.80;;;7.10;99.90;;;;;;4918437;29;20217;-72
2023/03/14 17:31:22;;;;;;;3.10;0.50;;;7.10;99.90;;;;;;4918480;29;20237;-73
2023/03/14 17:33:50;;;;;;;4.70;0.90;;;7.00;99.90;;;;;;4918263;29;20752;-75
2023/03/14 17:36:20;;;;;;;5.70;0.73;;;6.90;99.90;;;;;;4918187;29;20227;-72
2023/03/14 17:38:47;;;;;;;0.83;0.43;;;7.00;99.90;;;;;;4917964;29;20210;-72
2023/03/14 17:41:15;;;;;;;4.23;0.70;;;6.90;99.90;;;;;;4918166;29;20226;-72
2023/03/14 17:43:42;;;;;;;2.57;0.50;;;6.80;99.90;;;;;;4918000;29;20304;-72
2023/03/14 17:46:13;;;;;;;1.07;0.70;;;6.70;99.90;;;;;;4917971;29;20576;-72
2023/03/14 17:48:40;;;;;;;5.27;1.00;;;6.80;99.90;;;;;;4917819;29;20308;-72
2023/03/14 17:51:07;;;;;;;4.17;0.90;;;7.00;99.90;;;;;;4917715;29;20238;-72
2023/03/14 17:53:36;;;;;;;1.70;0.70;;;7.00;99.90;;;;;;4917967;29;20218;-73
2023/03/14 17:56:03;;;;;;;3.40;1.10;;;7.00;99.90;;;;;;4918050;29;20577;-76
2023/03/14 17:58:33;;;;;;;5.30;2.33;;;7.10;99.90;;;;;;4917962;29;20309;-73
2023/03/14 18:01:08;;;;;;;6.50;2.00;;;7.00;99.90;;;;;;4917683;29;20229;-73
2023/03/14 18:03:35;;;;;;;4.20;1.10;;;7.00;99.90;;;;;;4917847;29;20269;-73
2023/03/14 18:06:05;;;;;;;3.13;0.80;;;6.90;99.90;;;;;;4917513;29;20209;-73
2023/03/14 18:08:31;;;;;;;3.90;0.97;;;7.00;99.90;;;;;;4917715;29;20220;-73
2023/03/14 18:11:00;;;;;;;2.77;1.20;;;6.90;99.90;;;;;;4917734;29;20233;-72
2023/03/14 18:13:26;;;;;;;9.73;0.97;;;6.80;99.90;;;;;;4917491;29;20217;-72
2023/03/14 18:15:53;;;;;;;4.87;1.10;;;6.80;99.90;;;;;;4917306;29;20205;-73
2023/03/14 18:18:20;;;;;;;3.87;1.13;;;6.80;99.90;;;;;;4917362;29;20665;-72
2023/03/14 18:20:49;;;;;;;2.43;1.17;;;6.70;99.90;;;;;;4917260;29;20233;-72
2023/03/14 18:23:16;;;;;;;6.97;1.20;;;6.60;99.90;;;;;;4917348;29;20288;-73
2023/03/14 18:25:43;;;;;;;7.90;1.10;;;6.50;99.90;;;;;;4917372;29;20217;-73
2023/03/14 18:28:11;;;;;;;2.10;1.03;;;6.40;99.90;;;;;;4917263;29;20209;-74
2023/03/14 18:30:38;;;;;;;6.53;1.37;;;6.40;99.90;;;;;;4916927;29;20230;-74
2023/03/14 18:33:05;;;;;;;4.27;1.07;;;6.40;99.90;;;;;;4917117;29;20214;-73
2023/03/14 18:35:32;;;;;;;4.73;1.03;;;6.30;99.90;;;;;;4917012;29;20706;-74
2023/03/14 18:37:59;;;;;;;3.40;1.17;;;6.20;99.90;;;;;;4917029;29;20217;-73
2023/03/14 18:40:25;;;;;;;4.57;0.97;;;6.10;99.90;;;;;;4917045;29;20232;-73
2023/03/14 18:42:52;;;;;;;3.80;0.90;;;6.10;99.90;;;;;;4916724;29;20233;-72
2023/03/14 18:45:20;;;;;;;8.90;2.13;;;5.90;99.90;;;;;;4916598;29;20210;-73
2023/03/14 18:47:47;;;;;;;7.37;1.57;;;6.00;99.90;;;;;;4917142;29;20209;-73
2023/03/14 18:50:14;;;;;;;6.73;1.83;;;6.00;99.90;;;;;;4917178;29;20237;-73
2023/03/14 18:52:41;;;;;;;3.70;1.97;;;5.80;99.90;;;;;;4916896;29;20213;-73
2023/03/14 18:55:08;;;;;;;8.73;1.77;;;5.70;99.90;;;;;;4916850;29;20209;-73
2023/03/14 18:57:35;;;;;;;5.23;1.80;;;5.60;99.90;;;;;;4916884;29;20296;-73
2023/03/14 19:00:05;;;;;;;11.80;1.80;;;5.60;99.90;;;;;;4915836;29;20225;-75
2023/03/14 19:02:33;;;;;;;5.90;2.00;;;5.60;99.90;;;;;;4916767;29;20257;-73
2023/03/14 19:05:00;;;;;;;9.00;2.03;;;5.60;99.90;;;;;;4917022;29;20572;-72
2023/03/14 19:07:27;;;;;;;6.47;2.10;;;5.60;99.90;;;;;;4917316;29;20245;-72
2023/03/14 19:09:54;;;;;;;4.33;1.20;;;5.70;99.90;;;;;;4917295;29;20253;-74
2023/03/14 19:12:21;;;;;;;3.77;1.67;;;5.80;99.90;;;;;;4917111;29;20245;-73
2023/03/14 19:14:48;;;;;;;39.33;12.47;;;5.90;99.90;;;;;;4916416;29;20211;-75
2023/03/14 19:17:15;;;;;;;13.83;4.77;;;5.90;99.90;;;;;;4916933;29;20205;-73
2023/03/14 19:19:43;;;;;;;2.03;1.20;;;6.00;99.90;;;;;;4916458;29;20321;-77
2023/03/14 19:22:10;;;;;;;6.23;1.50;;;6.10;99.90;;;;;;4916465;29;20237;-74
2023/03/14 19:24:37;;;;;;;3.73;1.20;;;6.20;99.90;;;;;;4916404;29;20284;-73
2023/03/14 19:27:04;;;;;;;4.90;1.67;;;6.30;99.90;;;;;;4916598;29;20220;-73
2023/03/14 19:29:35;;;;;;;7.27;2.33;;;6.20;99.90;;;;;;4916582;29;20226;-72
2023/03/14 19:32:02;;;;;;;10.93;3.53;;;6.20;99.90;;;;;;4917589;29;20573;-74
2023/03/14 19:34:30;;;;;;;4.33;2.43;;;6.20;99.90;;;;;;4917240;29;20211;-74
2023/03/14 19:36:58;;;;;;;4.43;1.63;;;6.20;99.90;;;;;;4916687;29;20213;-72
2023/03/14 19:39:25;;;;;;;3.33;1.27;;;6.20;99.90;;;;;;4916255;29;20218;-73
2023/03/14 19:41:56;;;;;;;3.80;1.83;;;6.30;99.90;;;;;;4916305;29;20241;-73
2023/03/14 19:44:23;;;;;;;4.10;1.40;;;6.10;99.90;;;;;;4916702;29;20300;-72
2023/03/14 19:46:50;;;;;;;6.17;1.33;;;6.00;99.90;;;;;;4916472;29;20206;-72
2023/03/14 19:49:17;;;;;;;5.60;1.50;;;5.80;99.90;;;;;;4916242;29;20210;-77
2023/03/14 19:51:44;;;;;;;2.90;1.20;;;5.80;99.90;;;;;;4916363;29;20661;-72
2023/03/14 19:54:13;;;;;;;3.20;1.50;;;5.60;99.90;;;;;;4916175;29;20570;-72
2023/03/14 19:56:40;;;;;;;3.53;1.33;;;5.50;99.90;;;;;;4916234;29;20642;-73
2023/03/14 19:59:07;;;;;;;2.50;1.17;;;5.40;99.90;;;;;;4915989;29;20551;-73
2023/03/14 20:01:34;;;;;;;3.50;1.70;;;5.30;99.90;;;;;;4916038;29;20209;-72
2023/03/14 20:04:03;;;;;;;4.83;1.50;;;5.20;99.90;;;;;;4915942;29;20213;-72
2023/03/14 20:06:30;;;;;;;8.53;1.80;;;5.10;99.90;;;;;;4915913;29;20217;-72
2023/03/14 20:08:58;;;;;;;3.30;1.50;;;5.10;99.90;;;;;;4915903;29;20216;-71
2023/03/14 20:11:26;;;;;;;5.53;1.80;;;5.00;99.90;;;;;;4918474;29;20250;-72
2023/03/14 20:13:53;;;;;;;3.67;1.60;;;4.90;99.90;;;;;;4919045;29;20328;-72
2023/03/14 20:16:20;;;;;;;5.97;1.73;;;4.80;99.90;;;;;;4919218;29;20684;-74
2023/03/14 20:18:46;;;;;;;6.67;1.60;;;4.80;99.90;;;;;;4919425;29;20214;-72
2023/03/14 20:21:14;;;;;;;6.40;2.03;;;4.80;99.90;;;;;;4919049;29;20230;-71
2023/03/14 20:23:42;;;;;;;6.67;1.70;;;4.80;99.90;;;;;;4919305;29;20234;-72
2023/03/14 20:26:09;;;;;;;10.60;2.20;;;4.70;99.90;;;;;;4919374;29;20601;-72
2023/03/14 20:28:37;;;;;;;5.03;1.73;;;4.60;99.90;;;;;;4919384;29;20214;-72
2023/03/14 20:31:07;;;;;;;9.03;2.00;;;4.70;99.90;;;;;;4919154;29;20320;-72
2023/03/14 20:33:35;;;;;;;4.07;1.90;;;4.70;99.90;;;;;;4919037;29;20213;-71
2023/03/14 20:36:02;;;;;;;6.37;2.10;;;4.60;99.90;;;;;;4919256;29;20210;-72
2023/03/14 20:38:29;;;;;;;3.47;2.00;;;4.60;99.90;;;;;;4919147;29;20661;-71
2023/03/14 20:40:57;;;;;;;8.83;2.00;;;4.70;99.90;;;;;;4919109;29;20240;-72
2023/03/14 20:43:24;;;;;;;4.90;2.20;;;4.80;99.90;;;;;;4919008;29;20327;-72
2023/03/14 20:45:56;;;;;;;7.03;1.83;;;4.80;99.90;;;;;;4918959;29;20206;-71
2023/03/14 20:48:24;;;;;;;6.23;2.90;;;4.70;99.90;;;;;;4918514;29;20217;-71
2023/03/14 20:50:51;;;;;;;3.17;2.00;;;4.60;99.90;;;;;;4918956;29;20801;-72
2023/03/14 20:53:18;;;;;;;6.17;2.67;;;4.60;99.90;;;;;;4918816;29;20216;-72
2023/03/14 20:55:45;;;;;;;2.87;1.70;;;4.60;99.90;;;;;;4919035;29;20574;-71
2023/03/14 20:58:12;;;;;;;5.37;1.70;;;4.60;99.90;;;;;;4918715;29;20213;-72
2023/03/14 21:00:40;;;;;;;2.70;1.57;;;4.60;99.90;;;;;;4918496;29;20244;-72
2023/03/14 21:03:09;;;;;;;3.33;1.70;;;4.60;99.90;;;;;;4918700;29;20600;-72
2023/03/14 21:05:37;;;;;;;3.70;1.53;;;4.60;99.90;;;;;;4918716;29;20217;-72
2023/03/14 21:08:04;;;;;;;5.70;2.40;;;4.40;99.90;;;;;;4918588;29;20300;-72
2023/03/14 21:10:30;;;;;;;6.13;1.80;;;4.40;99.90;;;;;;4919085;29;20230;-72
2023/03/14 21:12:57;;;;;;;15.43;2.10;;;4.40;99.90;;;;;;4918363;29;20239;-72
2023/03/14 21:15:24;;;;;;;4.73;1.47;;;4.40;99.90;;;;;;4918366;29;20214;-76
2023/03/14 21:17:53;;;;;;;4.47;1.40;;;4.30;99.90;;;;;;4918721;29;20209;-73
2023/03/14 21:20:24;;;;;;;6.33;1.70;;;4.20;99.90;;;;;;4918136;29;20234;-72
2023/03/14 21:22:51;;;;;;;2.97;1.30;;;4.30;99.90;;;;;;4917380;29;20233;-76
2023/03/14 21:25:18;;;;;;;4.60;1.60;;;4.30;99.90;;;;;;4918383;29;20214;-73
2023/03/14 21:27:45;;;;;;;3.23;1.50;;;4.30;99.90;;;;;;4918118;29;20573;-72
2023/03/14 21:30:13;;;;;;;1.80;1.13;;;4.30;99.90;;;;;;4918214;29;20225;-72
2023/03/14 21:32:40;;;;;;;5.67;1.23;;;4.40;99.90;;;;;;4918325;29;20223;-72
2023/03/14 21:35:07;;;;;;;2.57;0.93;;;4.40;99.90;;;;;;4918022;29;20214;-74
2023/03/14 21:37:35;;;;;;;4.27;1.10;;;4.20;99.90;;;;;;4918071;29;20221;-72
2023/03/14 21:40:02;;;;;;;4.17;1.30;;;4.10;99.90;;;;;;4917924;29;20240;-71
2023/03/14 21:42:29;;;;;;;1.67;0.90;;;3.90;99.90;;;;;;4917823;29;20596;-71
2023/03/14 21:44:56;;;;;;;1.97;0.87;;;3.90;99.90;;;;;;4917912;29;20213;-75
2023/03/14 21:47:23;;;;;;;2.43;0.80;;;3.90;99.90;;;;;;4917813;29;20210;-73
2023/03/14 21:49:50;;;;;;;3.10;0.90;;;3.90;99.90;;;;;;4917960;29;20241;-71
2023/03/14 21:52:17;;;;;;;1.33;0.77;;;3.90;99.90;;;;;;4917843;29;20224;-72
2023/03/14 21:54:45;;;;;;;1.30;0.70;;;3.90;99.90;;;;;;4917950;29;20227;-71
2023/03/14 21:57:14;;;;;;;7.80;1.50;;;3.80;99.90;;;;;;4917643;29;20210;-72
2023/03/14 21:59:42;;;;;;;7.93;1.20;;;3.80;99.90;;;;;;4917557;29;20273;-72
2023/03/14 22:02:13;;;;;;;2.47;1.00;;;3.80;99.90;;;;;;4917559;29;20300;-71
2023/03/14 22:04:40;;;;;;;2.87;1.07;;;3.80;99.90;;;;;;4917615;29;20217;-72
2023/03/14 22:07:09;;;;;;;5.47;1.40;;;3.80;99.90;;;;;;4917519;29;20206;-71
2023/03/14 22:09:38;;;;;;;3.53;1.30;;;3.70;99.90;;;;;;4917313;29;20233;-71
2023/03/14 22:12:07;;;;;;;4.37;1.40;;;3.80;99.90;;;;;;4916884;29;20214;-72
2023/03/14 22:14:34;;;;;;;3.13;1.40;;;3.80;99.90;;;;;;4917094;29;20577;-71
2023/03/14 22:17:02;;;;;;;4.93;1.50;;;3.80;99.90;;;;;;4916436;29;20672;-72
2023/03/14 22:19:30;;;;;;;3.43;1.37;;;3.80;99.90;;;;;;4911501;29;20230;-72
2023/03/14 22:21:56;;;;;;;3.17;1.33;;;3.80;99.90;;;;;;4916642;29;20304;-71
2023/03/14 22:24:23;;;;;;;5.63;1.47;;;3.80;99.90;;;;;;4916698;29;20241;-71